createdAt,value
2023-04-10T00:00:16.728Z,99.90
2023-04-10T00:02:45.835Z,99.90
2023-04-10T00:05:15.088Z,99.90
2023-04-10T00:07:45.477Z,99.90
2023-04-10T00:10:14.313Z,99.90
2023-04-10T00:12:43.273Z,99.90
2023-04-10T00:15:12.541Z,99.90
2023-04-10T00:17:41.551Z,99.90
2023-04-10T00:20:11.423Z,99.90
2023-04-10T00:22:42.146Z,99.90
2023-04-10T00:25:12.704Z,99.90
2023-04-10T00:27:41.671Z,99.90
2023-04-10T00:30:10.989Z,99.90
2023-04-10T00:32:39.959Z,99.90
2023-04-10T00:35:10.017Z,99.90
2023-04-10T00:37:39.230Z,99.90
2023-04-10T00:40:09.556Z,99.90
2023-04-10T00:42:39.953Z,99.90
2023-04-10T00:45:09.464Z,99.90
2023-04-10T00:47:39.509Z,99.90
2023-04-10T00:50:09.252Z,99.90
2023-04-10T00:52:39.023Z,99.90
2023-04-10T00:55:08.730Z,99.90
2023-04-10T00:57:39.382Z,99.90
2023-04-10T01:00:11.195Z,99.90
2023-04-10T01:02:40.372Z,99.90
2023-04-10T01:05:10.391Z,99.90
2023-04-10T01:07:51.847Z,99.90
2023-04-10T01:10:30.889Z,99.90
2023-04-10T01:13:09.990Z,99.90
2023-04-10T01:15:45.157Z,99.90
2023-04-10T01:18:20.676Z,99.90
2023-04-10T01:20:49.704Z,99.90
2023-04-10T01:23:55.816Z,99.90
2023-04-10T01:26:40.829Z,99.90
2023-04-10T01:29:19.594Z,99.90
2023-04-10T01:31:55.510Z,99.90
2023-04-10T01:34:33.121Z,99.90
2023-04-10T01:37:05.480Z,99.90
2023-04-10T01:39:38.955Z,99.90
2023-04-10T01:42:10.545Z,99.90
2023-04-10T01:44:44.041Z,99.90
2023-04-10T01:47:16.448Z,99.90
2023-04-10T01:49:48.389Z,99.90
2023-04-10T01:52:18.853Z,99.90
2023-04-10T01:54:53.550Z,99.90
2023-04-10T01:57:30.634Z,99.90
2023-04-10T02:00:02.265Z,99.90
2023-04-10T02:02:32.857Z,99.90
2023-04-10T02:05:01.887Z,99.90
2023-04-10T02:07:37.903Z,99.90
2023-04-10T02:10:12.842Z,99.90
2023-04-10T02:12:50.671Z,99.90
2023-04-10T02:15:22.714Z,99.90
2023-04-10T02:17:53.988Z,99.90
2023-04-10T02:20:25.063Z,99.90
2023-04-10T02:22:54.773Z,99.90
2023-04-10T02:25:23.797Z,99.90
2023-04-10T02:27:52.844Z,99.90
2023-04-10T02:30:24.827Z,99.90
2023-04-10T02:32:53.970Z,99.90
2023-04-10T02:35:22.716Z,99.90
2023-04-10T02:37:51.728Z,99.90
2023-04-10T02:40:20.976Z,99.90
2023-04-10T02:42:58.097Z,99.90
2023-04-10T02:45:28.565Z,99.90
2023-04-10T02:47:57.808Z,99.90
2023-04-10T02:50:29.742Z,99.90
2023-04-10T02:52:58.916Z,99.90
2023-04-10T02:55:28.047Z,99.90
2023-04-10T02:57:57.583Z,99.90
2023-04-10T03:00:27.787Z,99.90
2023-04-10T03:03:17.284Z,99.90
2023-04-10T03:05:55.871Z,99.90
2023-04-10T03:08:31.148Z,99.90
2023-04-10T03:11:00.029Z,99.90
2023-04-10T03:13:29.066Z,99.90
2023-04-10T03:15:59.359Z,99.90
2023-04-10T03:18:28.252Z,99.90
2023-04-10T03:20:58.186Z,99.90
2023-04-10T03:23:27.096Z,99.90
2023-04-10T03:25:56.312Z,99.90
2023-04-10T03:28:29.847Z,99.90
2023-04-10T03:31:00.032Z,99.90
2023-04-10T03:33:29.050Z,99.90
2023-04-10T03:35:58.529Z,99.90
2023-04-10T03:38:28.075Z,99.90
2023-04-10T03:40:57.204Z,99.90
2023-04-10T03:43:28.387Z,99.90
2023-04-10T03:45:57.232Z,99.90
2023-04-10T03:48:30.604Z,99.90
2023-04-10T03:50:59.841Z,99.90
2023-04-10T03:53:28.761Z,99.90
2023-04-10T03:55:57.763Z,99.90
2023-04-10T03:58:27.629Z,99.90
2023-04-10T04:00:58.329Z,99.90
2023-04-10T04:03:37.407Z,99.90
2023-04-10T04:06:25.199Z,99.90
2023-04-10T04:09:17.379Z,99.90
2023-04-10T04:11:54.325Z,99.90
2023-04-10T04:14:44.885Z,99.90
2023-04-10T04:17:32.588Z,99.90
2023-04-10T04:20:12.566Z,99.90
2023-04-10T04:23:07.276Z,99.90
2023-04-10T04:25:59.828Z,99.90
2023-04-10T04:28:47.991Z,99.90
2023-04-10T04:31:19.938Z,99.90
2023-04-10T04:34:07.706Z,99.90
2023-04-10T04:47:19.115Z,99.90
2023-04-10T04:49:58.547Z,99.90
2023-04-10T04:52:47.808Z,99.90
2023-04-10T04:55:35.449Z,99.90
2023-04-10T04:58:12.160Z,99.90
2023-04-10T05:01:02.027Z,99.90
2023-04-10T05:03:50.416Z,99.90
2023-04-10T05:06:51.475Z,99.90
2023-04-10T05:09:39.203Z,99.90
2023-04-10T05:12:28.308Z,99.90
2023-04-10T05:15:10.052Z,99.90
2023-04-10T05:17:53.269Z,99.90
2023-04-10T05:20:44.046Z,99.90
2023-04-10T05:23:31.473Z,99.90
2023-04-10T05:26:19.307Z,99.90
2023-04-10T05:29:10.431Z,99.90
2023-04-10T05:32:09.708Z,99.90
2023-04-10T05:34:46.153Z,99.90
2023-04-10T05:37:28.720Z,99.90
2023-04-10T05:40:17.480Z,99.90
2023-04-10T05:43:10.770Z,99.90
2023-04-10T05:45:58.925Z,99.90
2023-04-10T05:49:00.905Z,99.90
2023-04-10T05:51:50.266Z,99.90
2023-04-10T05:54:32.362Z,99.90
2023-04-10T05:57:20.005Z,99.90
2023-04-10T05:59:57.581Z,99.90
2023-04-10T06:02:44.136Z,99.90
2023-04-10T06:05:23.251Z,99.90
2023-04-10T06:07:59.761Z,99.90
2023-04-10T06:10:31.693Z,99.90
2023-04-10T06:13:00.961Z,99.90
2023-04-10T06:15:30.593Z,99.90
2023-04-10T06:18:00.007Z,99.90
2023-04-10T06:20:29.201Z,99.90
2023-04-10T06:22:58.317Z,99.90
2023-04-10T06:25:27.534Z,99.90
2023-04-10T06:27:58.115Z,99.90
2023-04-10T06:30:27.539Z,99.90
2023-04-10T06:32:56.507Z,99.90
2023-04-10T06:35:26.028Z,99.90
2023-04-10T06:37:54.993Z,99.90
2023-04-10T06:40:23.809Z,99.90
2023-04-10T06:42:52.750Z,99.90
2023-04-10T06:45:32.471Z,99.90
2023-04-10T06:48:01.701Z,99.90
2023-04-10T06:50:32.891Z,99.90
2023-04-10T06:53:02.329Z,99.90
2023-04-10T06:55:31.365Z,99.90
2023-04-10T06:58:00.438Z,99.90
2023-04-10T07:00:29.737Z,99.90
2023-04-10T07:03:00.472Z,99.90
2023-04-10T07:05:29.381Z,99.90
2023-04-10T07:07:58.532Z,99.90
2023-04-10T07:10:27.397Z,99.90
2023-04-10T07:12:57.328Z,99.90
2023-04-10T07:15:26.657Z,99.90
2023-04-10T07:17:56.444Z,99.90
2023-04-10T07:20:28.165Z,99.90
2023-04-10T07:22:56.980Z,99.90
2023-04-10T07:25:25.910Z,99.90
2023-04-10T07:27:54.958Z,99.90
2023-04-10T07:30:23.786Z,99.90
2023-04-10T07:32:52.949Z,99.90
2023-04-10T07:35:21.962Z,99.90
2023-04-10T07:37:53.097Z,99.90
2023-04-10T07:40:22.217Z,99.90
2023-04-10T07:42:53.335Z,99.90
2023-04-10T07:45:22.793Z,99.90
2023-04-10T07:47:51.725Z,99.90
2023-04-10T07:50:20.849Z,99.90
2023-04-10T07:52:51.825Z,99.90
2023-04-10T07:55:21.164Z,99.90
2023-04-10T07:57:52.290Z,99.90
2023-04-10T08:00:21.313Z,99.90
2023-04-10T08:02:50.262Z,99.90
2023-04-10T08:05:19.805Z,99.90
2023-04-10T08:07:48.734Z,99.90
2023-04-10T08:10:19.006Z,99.90
2023-04-10T08:12:47.929Z,99.90
2023-04-10T08:15:16.799Z,99.90
2023-04-10T08:17:45.579Z,99.90
2023-04-10T08:20:15.148Z,99.90
2023-04-10T08:22:44.216Z,99.90
2023-04-10T08:25:13.211Z,99.90
2023-04-10T08:27:43.792Z,99.90
2023-04-10T08:30:13.027Z,99.90
2023-04-10T08:32:42.210Z,99.90
2023-04-10T08:35:11.426Z,99.90
2023-04-10T08:37:40.275Z,99.90
2023-04-10T08:40:10.377Z,99.90
2023-04-10T08:42:39.388Z,99.90
2023-04-10T08:45:11.144Z,99.90
2023-04-10T08:47:42.830Z,99.90
2023-04-10T08:50:14.487Z,99.90
2023-04-10T08:52:46.461Z,99.90
2023-04-10T08:55:15.728Z,99.90
2023-04-10T08:57:54.332Z,99.90
2023-04-10T09:00:31.756Z,99.90
2023-04-10T09:03:00.938Z,99.90
2023-04-10T09:05:30.921Z,99.90
2023-04-10T09:07:59.698Z,99.90
2023-04-10T09:10:28.416Z,99.90
2023-04-10T09:12:57.320Z,99.90
2023-04-10T09:15:26.260Z,99.90
2023-04-10T09:18:01.654Z,99.90
2023-04-10T09:20:32.501Z,99.90
2023-04-10T09:23:02.492Z,99.90
2023-04-10T09:25:36.578Z,99.90
2023-04-10T09:28:06.910Z,99.90
2023-04-10T09:30:38.169Z,99.90
2023-04-10T09:33:24.001Z,99.90
2023-04-10T09:35:53.067Z,99.90
2023-04-10T09:38:23.173Z,99.90
2023-04-10T09:40:53.651Z,99.90
2023-04-10T09:43:25.285Z,99.90
2023-04-10T09:45:56.613Z,99.90
2023-04-10T09:48:27.957Z,99.90
2023-04-10T09:50:57.898Z,99.90
2023-04-10T09:53:26.828Z,99.90
2023-04-10T09:55:56.986Z,99.90
2023-04-10T09:58:26.547Z,99.90
2023-04-10T10:00:55.515Z,99.90
2023-04-10T10:03:25.604Z,99.90
2023-04-10T10:05:56.030Z,99.90
2023-04-10T10:08:25.399Z,99.90
2023-04-10T10:10:56.609Z,99.90
2023-04-10T10:13:29.513Z,99.90
2023-04-10T10:16:04.658Z,99.90
2023-04-10T10:18:40.481Z,99.90
2023-04-10T10:21:11.494Z,99.90
2023-04-10T10:23:43.464Z,99.90
2023-04-10T10:26:12.401Z,99.90
2023-04-10T10:28:42.002Z,99.90
2023-04-10T10:31:12.455Z,99.90
2023-04-10T10:33:42.372Z,99.90
2023-04-10T10:36:14.027Z,99.90
2023-04-10T10:38:50.078Z,99.90
2023-04-10T10:41:26.792Z,99.90
2023-04-10T10:44:02.694Z,99.90
2023-04-10T10:46:38.580Z,99.90
2023-04-10T10:49:07.615Z,99.90
2023-04-10T10:51:48.266Z,99.90
2023-04-10T10:54:33.591Z,99.90
2023-04-10T10:57:06.573Z,99.90
2023-04-10T10:59:57.797Z,99.40
2023-04-10T11:02:27.274Z,98.50
2023-04-10T11:04:56.347Z,98.20
2023-04-10T11:08:05.000Z,98.70
2023-04-10T11:11:00.934Z,97.90
2023-04-10T11:13:30.032Z,98.20
2023-04-10T11:15:59.409Z,98.50
2023-04-10T11:22:06.039Z,98.00
2023-04-10T11:24:56.317Z,98.50
2023-04-10T11:27:42.599Z,98.90
2023-04-10T11:30:33.151Z,99.00
2023-04-10T11:33:03.975Z,98.70
2023-04-10T11:35:33.994Z,97.40
2023-04-10T11:38:16.514Z,97.60
2023-04-10T11:41:07.056Z,96.50
2023-04-10T11:43:36.039Z,97.10
2023-04-10T11:46:07.546Z,97.00
2023-04-10T11:48:38.038Z,97.40
2023-04-10T11:51:14.325Z,97.00
2023-04-10T11:53:43.700Z,97.00
2023-04-10T11:56:22.535Z,97.10
2023-04-10T11:58:54.685Z,97.80
2023-04-10T12:01:24.522Z,97.40
2023-04-10T12:03:53.744Z,97.60
2023-04-10T12:06:23.235Z,97.70
2023-04-10T12:08:52.356Z,98.70
2023-04-10T12:11:25.247Z,98.20
2023-04-10T12:13:55.071Z,98.50
2023-04-10T12:16:24.264Z,99.30
2023-04-10T12:18:54.528Z,99.60
2023-04-10T12:21:23.868Z,99.80
2023-04-10T12:23:53.091Z,99.70
2023-04-10T12:26:24.202Z,99.10
2023-04-10T12:28:54.786Z,98.70
2023-04-10T12:31:31.181Z,97.80
2023-04-10T12:34:03.472Z,97.80
2023-04-10T12:36:35.556Z,98.30
2023-04-10T12:39:08.921Z,97.90
2023-04-10T12:41:47.031Z,96.80
2023-04-10T12:44:21.096Z,96.50
2023-04-10T12:46:51.180Z,95.80
2023-04-10T12:49:20.363Z,95.20
2023-04-10T12:51:53.735Z,96.10
2023-04-10T12:54:30.688Z,98.30
2023-04-10T12:57:01.905Z,99.30
2023-04-10T12:59:31.447Z,99.90
2023-04-10T13:02:00.617Z,99.90
2023-04-10T13:04:31.701Z,99.90
2023-04-10T13:07:01.263Z,99.90
2023-04-10T13:09:30.018Z,99.90
2023-04-10T13:12:00.249Z,99.90
2023-04-10T13:14:29.045Z,99.90
2023-04-10T13:16:57.852Z,99.90
2023-04-10T13:19:26.723Z,99.90
2023-04-10T13:21:55.889Z,99.90
2023-04-10T13:24:24.782Z,99.90
2023-04-10T13:26:53.580Z,99.90
2023-04-10T13:29:24.031Z,99.90
2023-04-10T13:31:52.972Z,99.90
2023-04-10T13:34:21.941Z,99.90
2023-04-10T13:36:51.066Z,99.90
2023-04-10T13:39:19.869Z,99.90
2023-04-10T13:41:48.776Z,99.90
2023-04-10T13:44:17.602Z,99.90
2023-04-10T13:46:47.977Z,99.90
2023-04-10T13:49:17.909Z,99.90
2023-04-10T13:51:47.129Z,99.90
2023-04-10T13:54:17.069Z,99.90
2023-04-10T13:56:46.711Z,99.90
2023-04-10T13:59:15.818Z,99.90
2023-04-10T14:01:44.789Z,99.90
2023-04-10T14:04:15.125Z,99.90
2023-04-10T14:06:43.993Z,99.90
2023-04-10T14:09:12.947Z,99.90
2023-04-10T14:11:41.885Z,99.90
2023-04-10T14:14:10.893Z,99.90
2023-04-10T14:16:39.765Z,99.90
2023-04-10T14:19:08.603Z,99.90
2023-04-10T14:21:40.656Z,99.90
2023-04-10T14:24:09.657Z,99.90
2023-04-10T14:26:38.586Z,99.90
2023-04-10T14:29:08.700Z,99.90
2023-04-10T14:31:47.172Z,99.90
2023-04-10T14:34:23.675Z,99.90
2023-04-10T14:36:55.903Z,99.90
2023-04-10T14:39:25.871Z,99.90
2023-04-10T14:41:54.881Z,99.90
2023-04-10T14:44:23.837Z,99.90
2023-04-10T14:46:52.846Z,99.90
2023-04-10T14:49:21.838Z,99.90
2023-04-10T14:51:50.991Z,99.90
2023-04-10T14:54:23.636Z,99.90
2023-04-10T14:56:52.551Z,99.90
2023-04-10T14:59:21.393Z,99.90
2023-04-10T15:01:50.576Z,99.90
2023-04-10T15:04:19.585Z,99.90
2023-04-10T15:06:48.356Z,99.90
2023-04-10T15:09:17.188Z,99.90
2023-04-10T15:11:47.879Z,99.90
2023-04-10T15:14:17.103Z,99.90
2023-04-10T15:16:47.456Z,99.90
2023-04-10T15:19:16.262Z,99.90
2023-04-10T15:21:45.262Z,99.90
2023-04-10T15:24:14.329Z,99.90
2023-04-10T15:26:46.756Z,99.90
2023-04-10T15:29:15.747Z,99.90
2023-04-10T15:31:45.020Z,99.90
2023-04-10T15:34:14.755Z,99.90
2023-04-10T15:36:43.558Z,99.90
2023-04-10T15:39:12.555Z,99.90
2023-04-10T15:41:41.439Z,99.90
2023-04-10T15:44:11.728Z,99.90
2023-04-10T15:46:40.770Z,99.90
2023-04-10T15:49:09.859Z,99.90
2023-04-10T15:51:41.948Z,99.90
2023-04-10T15:54:11.183Z,99.90
2023-04-10T15:56:40.736Z,99.90
2023-04-10T15:59:11.130Z,99.90
2023-04-10T16:01:40.441Z,99.90
2023-04-10T16:04:09.418Z,99.90
2023-04-10T16:06:38.524Z,99.90
2023-04-10T16:09:22.040Z,99.90
2023-04-10T16:11:54.109Z,99.90
2023-04-10T16:14:24.401Z,99.90
2023-04-10T16:16:53.288Z,99.90
2023-04-10T16:19:22.239Z,99.90
2023-04-10T16:21:51.305Z,99.90
2023-04-10T16:24:20.246Z,99.90
2023-04-10T16:26:49.003Z,99.90
2023-04-10T16:29:19.923Z,99.90
2023-04-10T16:31:50.479Z,99.90
2023-04-10T16:34:19.432Z,99.90
2023-04-10T16:36:48.328Z,99.90
2023-04-10T16:39:17.311Z,99.90
2023-04-10T16:41:46.264Z,99.90
2023-04-10T16:44:15.299Z,99.90
2023-04-10T16:46:44.271Z,99.90
2023-04-10T16:49:14.653Z,99.90
2023-04-10T16:51:43.416Z,99.90
2023-04-10T16:54:12.306Z,99.90
2023-04-10T16:56:41.142Z,99.90
2023-04-10T16:59:09.965Z,99.90
2023-04-10T17:01:40.660Z,99.90
2023-04-10T17:04:10.698Z,99.90
2023-04-10T17:06:40.912Z,99.90
2023-04-10T17:09:09.938Z,99.90
2023-04-10T17:11:39.253Z,99.90
2023-04-10T17:14:09.082Z,99.90
2023-04-10T17:16:38.197Z,99.90
2023-04-10T17:19:07.221Z,99.90
2023-04-10T17:21:36.301Z,99.90
2023-04-10T17:24:07.015Z,99.90
2023-04-10T17:26:36.005Z,99.90
2023-04-10T17:29:05.082Z,99.90
2023-04-10T17:31:34.100Z,99.90
2023-04-10T17:34:03.964Z,99.90
2023-04-10T17:36:33.304Z,99.90
2023-04-10T17:39:02.413Z,99.90
2023-04-10T17:41:32.643Z,99.90
2023-04-10T17:44:03.149Z,99.90
2023-04-10T17:46:32.078Z,99.90
2023-04-10T17:49:04.483Z,99.90
2023-04-10T17:51:34.082Z,99.90
2023-04-10T17:54:04.540Z,99.90
2023-04-10T17:56:35.185Z,99.90
2023-04-10T17:59:04.279Z,99.90
2023-04-10T18:01:33.113Z,99.90
2023-04-10T18:04:05.456Z,99.90
2023-04-10T18:06:34.649Z,99.90
2023-04-10T18:09:03.780Z,99.90
2023-04-10T18:11:33.989Z,99.90
2023-04-10T18:14:02.842Z,99.90
2023-04-10T18:16:31.695Z,99.90
2023-04-10T18:19:00.688Z,99.90
2023-04-10T18:21:29.581Z,99.90
2023-04-10T18:23:58.554Z,99.90
2023-04-10T18:26:29.685Z,99.90
2023-04-10T18:29:01.542Z,99.90
2023-04-10T18:31:30.512Z,99.90
2023-04-10T18:34:07.281Z,99.90
2023-04-10T18:36:37.546Z,99.90
2023-04-10T18:39:06.513Z,99.90
2023-04-10T18:41:38.976Z,99.90
2023-04-10T18:44:09.491Z,99.90
2023-04-10T18:46:38.998Z,99.90
2023-04-10T18:49:08.133Z,99.90
2023-04-10T18:51:38.517Z,99.90
2023-04-10T18:54:11.401Z,99.90
2023-04-10T18:56:40.305Z,99.90
2023-04-10T18:59:10.937Z,99.90
2023-04-10T19:01:40.057Z,99.90
2023-04-10T19:04:09.132Z,99.90
2023-04-10T19:06:39.792Z,99.90
2023-04-10T19:09:09.317Z,99.90
2023-04-10T19:11:38.128Z,99.90
2023-04-10T19:14:07.620Z,99.90
2023-04-10T19:16:38.121Z,99.90
2023-04-10T19:19:08.051Z,99.90
2023-04-10T19:21:36.908Z,99.90
2023-04-10T19:24:06.178Z,99.90
2023-04-10T19:26:35.392Z,99.90
2023-04-10T19:29:04.538Z,99.90
2023-04-10T19:31:33.780Z,99.90
2023-04-10T19:34:09.059Z,99.90
2023-04-10T19:36:38.255Z,99.90
2023-04-10T19:39:07.080Z,99.90
2023-04-10T19:41:37.332Z,99.90
2023-04-10T19:44:06.610Z,99.90
2023-04-10T19:46:38.523Z,99.90
2023-04-10T19:49:11.270Z,99.90
2023-04-10T19:51:41.208Z,99.90
2023-04-10T19:54:10.176Z,99.90
2023-04-10T19:56:39.306Z,99.90
2023-04-10T19:59:08.480Z,99.90
2023-04-10T20:01:37.799Z,99.90
2023-04-10T20:04:08.480Z,99.90
2023-04-10T20:06:37.599Z,99.90
2023-04-10T20:09:08.213Z,99.90
2023-04-10T20:11:37.277Z,99.90
2023-04-10T20:14:06.373Z,99.90
2023-04-10T20:16:35.549Z,99.90
2023-04-10T20:19:05.133Z,99.90
2023-04-10T20:21:38.028Z,99.90
2023-04-10T20:24:08.443Z,99.90
2023-04-10T20:26:37.340Z,99.90
2023-04-10T20:29:07.699Z,99.90
2023-04-10T20:31:37.420Z,99.90
2023-04-10T20:34:07.016Z,99.90
2023-04-10T20:36:37.910Z,99.90
2023-04-10T20:39:07.238Z,99.90
2023-04-10T20:41:36.308Z,99.90
2023-04-10T20:44:06.562Z,99.90
2023-04-10T20:46:35.749Z,99.90
2023-04-10T20:49:04.885Z,99.90
2023-04-10T20:51:37.215Z,99.90
2023-04-10T20:54:10.377Z,99.90
2023-04-10T20:56:43.468Z,99.90
2023-04-10T20:59:13.001Z,99.90
2023-04-10T21:01:42.031Z,99.90
2023-04-10T21:04:11.143Z,99.90
2023-04-10T21:06:39.985Z,99.90
2023-04-10T21:09:10.227Z,99.90
2023-04-10T21:11:39.217Z,99.90
2023-04-10T21:14:09.190Z,99.90
2023-04-10T21:16:42.302Z,99.90
2023-04-10T21:19:12.318Z,99.90
2023-04-10T21:21:41.485Z,99.90
2023-04-10T21:24:11.774Z,99.90
2023-04-10T21:26:40.482Z,99.90
2023-04-10T21:29:09.482Z,99.90
2023-04-10T21:31:38.413Z,99.90
2023-04-10T21:34:07.406Z,99.90
2023-04-10T21:36:36.268Z,99.90
2023-04-10T21:39:09.112Z,99.90
2023-04-10T21:41:39.792Z,99.90
2023-04-10T21:44:08.851Z,99.90
2023-04-10T21:46:38.063Z,99.90
2023-04-10T21:49:06.899Z,99.90
2023-04-10T21:51:36.176Z,99.90
2023-04-10T21:54:05.709Z,99.90
2023-04-10T21:56:35.732Z,99.90
2023-04-10T21:59:07.589Z,99.90
2023-04-10T22:01:37.945Z,99.90
2023-04-10T22:04:07.497Z,99.90
2023-04-10T22:06:38.471Z,99.90
2023-04-10T22:09:07.308Z,99.90
2023-04-10T22:11:39.387Z,99.90
2023-04-10T22:14:17.252Z,99.90
2023-04-10T22:16:47.295Z,99.90
2023-04-10T22:19:16.472Z,99.90
2023-04-10T22:21:45.686Z,99.90
2023-04-10T22:24:15.214Z,99.90
2023-04-10T22:26:46.119Z,99.90
2023-04-10T22:29:16.689Z,99.90
2023-04-10T22:31:46.380Z,99.90
2023-04-10T22:34:15.516Z,99.90
2023-04-10T22:36:47.430Z,99.90
2023-04-10T22:39:16.428Z,99.90
2023-04-10T22:41:45.438Z,99.90
2023-04-10T22:44:18.694Z,99.90
2023-04-10T22:46:48.517Z,99.90
2023-04-10T22:49:17.832Z,99.90
2023-04-10T22:51:47.183Z,99.90
2023-04-10T22:54:17.097Z,99.90
2023-04-10T22:56:45.938Z,99.90
2023-04-10T22:59:18.456Z,99.90
2023-04-10T23:01:47.124Z,99.90
2023-04-10T23:04:15.965Z,99.90
2023-04-10T23:06:44.740Z,99.90
2023-04-10T23:09:13.633Z,99.90
2023-04-10T23:11:42.540Z,99.90
2023-04-10T23:14:11.777Z,99.90
2023-04-10T23:16:43.916Z,99.90
2023-04-10T23:19:12.901Z,99.90
2023-04-10T23:21:41.760Z,99.90
2023-04-10T23:24:10.632Z,99.90
2023-04-10T23:26:39.398Z,99.90
2023-04-10T23:29:08.198Z,99.90
2023-04-10T23:31:37.212Z,99.90
2023-04-10T23:34:07.372Z,99.90
2023-04-10T23:36:36.551Z,99.90
2023-04-10T23:39:05.468Z,99.90
2023-04-10T23:41:37.331Z,99.90
2023-04-10T23:44:06.672Z,99.90
2023-04-10T23:46:35.694Z,99.90
2023-04-10T23:49:06.003Z,99.90
2023-04-10T23:51:34.864Z,99.90
2023-04-10T23:54:04.149Z,99.90
2023-04-10T23:56:33.150Z,99.90
2023-04-10T23:59:02.032Z,99.90
